Aeolis — 3FMJ4 — position and weather

sailwx.info

Track history (hours):
 
Tides and Currents Weather Stations Pressure Air Temp Water Temp Dewpoint Dewpoint Depression Visibility Wind Speed Wind Dir Waves Ship Positions

Aeolis

Last reported at 2018-Jun-07 00:47 UTC. Time now 2018-Jun-21 11:54 UTC.
Position N 00°54' E 105°24'.
Warning: this ship's position is 14 days out of date.

Length 108 m; draft 6.4 m.

Type: Cargo ship. MMSI: 353430000.

Date/timePositionNaut miles runAvg speedWind from/ knotsBaromVisibWave heightAir tempDewpointWater temp
2018-Jun-07 00:47N 00°54' E 105°24'510.3
2018-Jun-07 00:17N 00°57' E 105°21'310.2
2018-Jun-06 23:58N 00°60' E 105°18'2310.4
2018-Jun-06 21:44N 01°14' E 104°60'311.0
2018-Jun-06 21:27N 01°15' E 104°57'2710.8
2018-Jun-06 18:57N 01°24' E 104°31'510.6
2018-Jun-06 18:27N 01°22' E 104°26'511.5
2018-Jun-06 18:00N 01°19' E 104°22'510.9
2018-Jun-06 17:30N 01°17' E 104°17'610.9
2018-Jun-06 16:59N 01°16' E 104°12'610.8
2018-Jun-06 16:27N 01°15' E 104°06'510.3
2018-Jun-06 16:00N 01°15' E 104°01'510.1
2018-Jun-06 15:30N 01°14' E 103°56'510.1
2018-Jun-06 15:00N 01°12' E 103°52'4 8.1
2018-Jun-06 14:30N 01°10' E 103°48'510.2
2018-Jun-06 14:00N 01°06' E 103°45'5 9.3
2018-Jun-06 13:30N 01°03' E 103°41'5 9.6
2018-Jun-06 13:00N 01°04' E 103°36'510.5
2018-Jun-06 12:30N 01°06' E 103°32'610.7
2018-Jun-06 11:59N 01°09' E 103°27'511.3
2018-Jun-06 11:30N 01°13' E 103°23'511.0
2018-Jun-06 11:00N 01°16' E 103°19'911.2
2018-Jun-06 10:10N 01°22' E 103°11'  
Track history (hours):
 
Tides and Currents Weather Stations Pressure Air Temp Water Temp Dewpoint Dewpoint Depression Visibility Wind Speed Wind Dir Waves Ship Positions

Aeolis

Last reported at 2018-Jun-07 00:47 UTC. Time now 2018-Jun-21 11:54 UTC.
Position N 00°54' E 105°24'.
Warning: this ship's position is 14 days out of date.

Length 108 m; draft 6.4 m.

Type: Cargo ship. MMSI: 353430000.

Date/timePositionNaut miles runAvg speedWind from/ knotsBaromVisibWave heightAir tempDewpointWater temp
2018-Jun-07 00:47N 00°54' E 105°24'510.3
2018-Jun-07 00:17N 00°57' E 105°21'310.2
2018-Jun-06 23:58N 00°60' E 105°18'2310.4
2018-Jun-06 21:44N 01°14' E 104°60'311.0
2018-Jun-06 21:27N 01°15' E 104°57'2710.8
2018-Jun-06 18:57N 01°24' E 104°31'510.6
2018-Jun-06 18:27N 01°22' E 104°26'511.5
2018-Jun-06 18:00N 01°19' E 104°22'510.9
2018-Jun-06 17:30N 01°17' E 104°17'610.9
2018-Jun-06 16:59N 01°16' E 104°12'610.8
2018-Jun-06 16:27N 01°15' E 104°06'510.3
2018-Jun-06 16:00N 01°15' E 104°01'510.1
2018-Jun-06 15:30N 01°14' E 103°56'510.1
2018-Jun-06 15:00N 01°12' E 103°52'4 8.1
2018-Jun-06 14:30N 01°10' E 103°48'510.2
2018-Jun-06 14:00N 01°06' E 103°45'5 9.3
2018-Jun-06 13:30N 01°03' E 103°41'5 9.6
2018-Jun-06 13:00N 01°04' E 103°36'510.5
2018-Jun-06 12:30N 01°06' E 103°32'610.7
2018-Jun-06 11:59N 01°09' E 103°27'511.3
2018-Jun-06 11:30N 01°13' E 103°23'511.0
2018-Jun-06 11:00N 01°16' E 103°19'911.2
2018-Jun-06 10:10N 01°22' E 103°11'  

Dump ship's entire track history